createdAt,value
2023-03-19T00:02:39.528Z,12.50
2023-03-19T00:05:27.353Z,12.40
2023-03-19T00:08:15.872Z,12.40
2023-03-19T00:11:12.428Z,12.40
2023-03-19T00:14:00.655Z,12.60
2023-03-19T00:16:48.503Z,12.60
2023-03-19T00:19:36.596Z,12.40
2023-03-19T00:22:24.704Z,12.40
2023-03-19T00:25:12.794Z,12.30
2023-03-19T00:28:00.686Z,12.30
2023-03-19T00:30:48.734Z,12.10
2023-03-19T00:33:36.884Z,12.20
2023-03-19T00:36:27.211Z,12.10
2023-03-19T00:39:15.242Z,12.00
2023-03-19T00:42:03.153Z,12.00
2023-03-19T00:44:51.196Z,11.90
2023-03-19T00:47:39.460Z,12.10
2023-03-19T00:50:27.411Z,12.20
2023-03-19T00:53:15.904Z,12.30
2023-03-19T00:56:03.998Z,12.30
2023-03-19T00:58:51.880Z,11.60
2023-03-19T01:01:39.782Z,11.30
2023-03-19T01:04:27.817Z,11.30
2023-03-19T01:07:16.042Z,11.40
2023-03-19T01:10:04.571Z,11.30
2023-03-19T01:12:54.254Z,11.40
2023-03-19T01:15:46.598Z,11.70
2023-03-19T01:18:34.995Z,11.30
2023-03-19T01:21:23.099Z,10.80
2023-03-19T01:24:11.033Z,10.60
2023-03-19T01:26:59.174Z,10.70
2023-03-19T01:29:47.350Z,10.90
2023-03-19T01:32:35.598Z,10.90
2023-03-19T01:35:23.641Z,10.90
2023-03-19T01:38:11.872Z,11.10
2023-03-19T01:41:01.191Z,11.40
2023-03-19T01:43:49.275Z,11.40
2023-03-19T01:46:40.850Z,11.30
2023-03-19T01:49:30.879Z,11.20
2023-03-19T01:52:19.784Z,11.30
2023-03-19T01:55:08.168Z,11.40
2023-03-19T01:57:56.866Z,11.50
2023-03-19T02:00:45.975Z,11.50
2023-03-19T02:03:34.627Z,11.10
2023-03-19T02:06:23.913Z,10.90
2023-03-19T02:09:12.600Z,11.10
2023-03-19T02:12:02.058Z,11.00
2023-03-19T02:14:49.919Z,10.70
2023-03-19T02:17:38.158Z,10.70
2023-03-19T02:20:44.613Z,10.40
2023-03-19T02:23:53.430Z,10.20
2023-03-19T02:26:43.418Z,10.50
2023-03-19T02:29:31.242Z,10.90
2023-03-19T02:32:19.216Z,11.00
2023-03-19T02:35:09.366Z,11.30
2023-03-19T02:37:57.205Z,11.30
2023-03-19T02:41:14.366Z,11.00
2023-03-19T02:44:04.641Z,11.20
2023-03-19T02:46:52.629Z,10.70
2023-03-19T02:49:40.611Z,10.60
2023-03-19T02:52:28.532Z,10.40
2023-03-19T02:55:18.451Z,10.40
2023-03-19T02:58:06.768Z,10.40
2023-03-19T03:00:54.639Z,10.40
2023-03-19T03:03:42.764Z,10.40
2023-03-19T03:06:30.618Z,10.50
2023-03-19T03:09:18.970Z,10.70
2023-03-19T03:12:07.527Z,10.80
2023-03-19T03:14:55.498Z,10.90
2023-03-19T03:17:47.672Z,10.60
2023-03-19T03:20:36.177Z,10.10
2023-03-19T03:23:31.747Z,9.80
2023-03-19T03:26:20.125Z,9.60
2023-03-19T03:29:11.133Z,9.60
2023-03-19T03:31:58.999Z,9.80
2023-03-19T03:34:50.450Z,9.70
2023-03-19T03:37:38.403Z,9.70
2023-03-19T03:40:27.356Z,9.60
2023-03-19T03:43:15.888Z,9.60
2023-03-19T03:46:06.302Z,9.60
2023-03-19T03:48:54.262Z,9.50
2023-03-19T03:51:43.535Z,9.60
2023-03-19T03:54:31.423Z,9.90
2023-03-19T03:57:19.252Z,10.10
2023-03-19T04:00:08.138Z,10.20
2023-03-19T04:02:56.020Z,10.20
2023-03-19T04:05:44.944Z,10.50
2023-03-19T04:08:32.957Z,10.30
2023-03-19T04:11:21.155Z,9.90
2023-03-19T04:14:09.926Z,9.50
2023-03-19T04:16:58.001Z,9.50
2023-03-19T04:19:45.987Z,9.50
2023-03-19T04:22:34.195Z,9.30
2023-03-19T04:25:22.422Z,9.20
2023-03-19T04:28:12.799Z,9.20
2023-03-19T04:31:07.014Z,9.10
2023-03-19T04:33:55.111Z,9.10
2023-03-19T04:36:43.274Z,9.00
2023-03-19T04:39:32.132Z,8.90
2023-03-19T04:42:20.384Z,8.90
2023-03-19T04:45:08.912Z,8.90
2023-03-19T04:47:56.962Z,8.90
2023-03-19T04:50:47.295Z,8.90
2023-03-19T04:53:36.450Z,8.90
2023-03-19T04:56:24.648Z,8.90
2023-03-19T04:59:12.456Z,8.90
2023-03-19T05:02:00.665Z,8.90
2023-03-19T05:04:49.236Z,8.70
2023-03-19T05:07:38.225Z,8.60
2023-03-19T05:10:26.300Z,8.60
2023-03-19T05:13:14.261Z,8.60
2023-03-19T05:16:02.305Z,8.70
2023-03-19T05:18:50.612Z,8.70
2023-03-19T05:21:38.434Z,8.70
2023-03-19T05:24:27.170Z,8.60
2023-03-19T05:27:15.395Z,8.60
2023-03-19T05:30:04.587Z,8.60
2023-03-19T05:32:55.470Z,8.60
2023-03-19T05:35:43.668Z,8.60
2023-03-19T05:38:31.473Z,8.70
2023-03-19T05:41:19.261Z,8.60
2023-03-19T05:44:07.225Z,8.60
2023-03-19T05:46:55.931Z,8.60
2023-03-19T05:49:43.782Z,8.60
2023-03-19T05:52:32.254Z,8.60
2023-03-19T05:55:20.160Z,8.60
2023-03-19T05:58:08.011Z,8.50
2023-03-19T06:00:56.648Z,8.60
2023-03-19T06:03:44.557Z,8.60
2023-03-19T06:06:32.980Z,8.60
2023-03-19T06:09:20.939Z,8.60
2023-03-19T06:12:08.949Z,8.70
2023-03-19T06:14:57.239Z,8.70
2023-03-19T06:17:45.150Z,8.70
2023-03-19T06:20:33.440Z,8.70
2023-03-19T06:23:21.452Z,8.80
2023-03-19T06:26:09.409Z,8.90
2023-03-19T06:28:57.472Z,9.00
2023-03-19T06:31:45.656Z,9.10
2023-03-19T06:34:33.727Z,9.10
2023-03-19T06:37:21.995Z,9.10
2023-03-19T06:40:11.243Z,9.00
2023-03-19T06:42:59.434Z,9.00
2023-03-19T06:45:47.670Z,9.00
2023-03-19T06:48:36.700Z,9.20
2023-03-19T06:51:27.881Z,9.20
2023-03-19T06:54:16.000Z,9.30
2023-03-19T06:57:04.086Z,9.40
2023-03-19T06:59:52.673Z,9.50
2023-03-19T07:02:40.742Z,9.40
2023-03-19T07:05:28.785Z,9.70
2023-03-19T07:08:16.846Z,9.70
2023-03-19T07:11:08.603Z,10.10
2023-03-19T07:13:56.693Z,10.60
2023-03-19T07:16:44.706Z,10.70
2023-03-19T07:19:32.662Z,10.30
2023-03-19T07:22:20.631Z,10.40
2023-03-19T07:25:09.059Z,10.50
2023-03-19T07:27:57.068Z,11.10
2023-03-19T07:30:45.295Z,11.20
2023-03-19T07:33:33.561Z,11.40
2023-03-19T07:36:23.917Z,12.20
2023-03-19T07:39:11.871Z,13.00
2023-03-19T07:41:59.851Z,12.80
2023-03-19T07:44:49.529Z,12.80
2023-03-19T07:47:37.627Z,12.40
2023-03-19T07:50:25.441Z,11.70
2023-03-19T07:53:13.333Z,11.80
2023-03-19T07:56:04.415Z,11.30
2023-03-19T07:58:52.559Z,11.30
2023-03-19T08:01:40.729Z,11.10
2023-03-19T08:04:28.763Z,10.90
2023-03-19T08:07:16.962Z,10.80
2023-03-19T08:10:07.232Z,10.80
2023-03-19T08:12:55.276Z,11.00
2023-03-19T08:15:43.556Z,11.40
2023-03-19T08:18:31.762Z,11.30
2023-03-19T08:21:19.855Z,11.10
2023-03-19T08:24:07.930Z,11.10
2023-03-19T08:26:56.316Z,11.30
2023-03-19T08:29:44.280Z,11.70
2023-03-19T08:32:32.660Z,12.10
2023-03-19T08:35:20.903Z,12.50
2023-03-19T08:38:08.841Z,12.90
2023-03-19T08:41:04.274Z,12.50
2023-03-19T08:43:52.589Z,13.50
2023-03-19T08:46:40.620Z,13.60
2023-03-19T08:49:28.592Z,13.50
2023-03-19T08:52:16.693Z,14.20
2023-03-19T08:55:05.986Z,15.50
2023-03-19T08:57:53.927Z,16.10
2023-03-19T09:00:41.898Z,15.80
2023-03-19T09:03:30.010Z,15.90
2023-03-19T09:06:18.122Z,15.60
2023-03-19T09:09:06.580Z,16.40
2023-03-19T09:11:54.539Z,15.20
2023-03-19T09:14:43.348Z,15.90
2023-03-19T09:17:31.400Z,17.40
2023-03-19T09:20:19.520Z,16.40
2023-03-19T09:23:07.459Z,17.30
2023-03-19T09:25:56.023Z,17.90
2023-03-19T09:28:46.302Z,17.80
2023-03-19T09:31:34.414Z,17.30
2023-03-19T09:34:22.694Z,17.30
2023-03-19T09:37:11.938Z,17.20
2023-03-19T09:40:00.143Z,17.10
2023-03-19T09:43:13.454Z,17.60
2023-03-19T09:46:06.866Z,19.00
2023-03-19T09:49:23.051Z,19.20
2023-03-19T09:52:44.499Z,16.80
2023-03-19T09:55:40.940Z,18.10
2023-03-19T09:58:34.238Z,18.20
2023-03-19T10:01:28.069Z,16.20
2023-03-19T10:04:49.627Z,15.50
2023-03-19T10:07:46.671Z,14.70
2023-03-19T10:10:59.442Z,14.70
2023-03-19T10:14:35.900Z,14.50
2023-03-19T10:17:32.955Z,14.90
2023-03-19T10:20:45.413Z,15.50
2023-03-19T10:23:53.180Z,15.80
2023-03-19T10:26:43.098Z,15.80
2023-03-19T10:29:31.820Z,15.70
2023-03-19T10:32:29.612Z,15.90
2023-03-19T10:35:41.949Z,15.90
2023-03-19T10:38:31.321Z,15.70
2023-03-19T10:41:38.733Z,15.60
2023-03-19T10:44:37.266Z,15.40
2023-03-19T10:47:28.453Z,15.60
2023-03-19T10:50:20.556Z,15.90
2023-03-19T10:53:33.259Z,15.60
2023-03-19T10:56:25.242Z,15.70
2023-03-19T10:59:25.740Z,15.60
2023-03-19T11:02:31.273Z,15.40
2023-03-19T11:05:22.204Z,15.10
2023-03-19T11:08:34.852Z,14.90
2023-03-19T11:11:36.928Z,14.90
2023-03-19T11:14:40.964Z,15.20
2023-03-19T11:17:50.180Z,14.90
2023-03-19T11:20:39.157Z,14.40
2023-03-19T11:23:41.715Z,14.40
2023-03-19T11:26:30.711Z,14.40
2023-03-19T11:29:18.954Z,14.40
2023-03-19T11:32:45.626Z,14.60
2023-03-19T11:36:01.779Z,14.60
2023-03-19T11:39:32.378Z,14.50
2023-03-19T11:42:41.350Z,15.20
2023-03-19T11:46:01.323Z,15.30
2023-03-19T11:49:46.373Z,15.20
2023-03-19T11:52:54.276Z,14.90
2023-03-19T11:56:16.262Z,15.60
2023-03-19T11:59:33.094Z,15.50
2023-03-19T12:03:00.069Z,15.70
2023-03-19T12:06:25.254Z,15.80
2023-03-19T12:09:49.780Z,16.20
2023-03-19T12:13:19.704Z,16.10
2023-03-19T12:16:46.113Z,17.20
2023-03-19T12:19:56.181Z,16.20
2023-03-19T12:23:04.626Z,15.30
2023-03-19T12:26:08.946Z,15.60
2023-03-19T12:29:15.066Z,15.20
2023-03-19T12:32:42.446Z,15.20
2023-03-19T12:35:36.967Z,15.80
2023-03-19T12:38:34.380Z,16.20
2023-03-19T12:41:26.189Z,16.80
2023-03-19T12:44:23.129Z,15.90
2023-03-19T12:47:38.653Z,16.60
2023-03-19T12:50:28.047Z,17.50
2023-03-19T12:53:47.896Z,16.40
2023-03-19T12:57:17.573Z,16.30
2023-03-19T13:00:42.732Z,15.60
2023-03-19T13:03:58.512Z,16.00
2023-03-19T13:07:18.434Z,16.50
2023-03-19T13:10:21.369Z,16.60
2023-03-19T13:13:44.445Z,16.60
2023-03-19T13:16:56.724Z,15.90
2023-03-19T13:19:54.524Z,15.00
2023-03-19T13:22:51.813Z,15.00
2023-03-19T13:25:48.434Z,14.70
2023-03-19T13:28:39.686Z,14.60
2023-03-19T13:31:29.061Z,14.10
2023-03-19T13:34:19.905Z,13.60
2023-03-19T13:37:28.299Z,13.50
2023-03-19T13:40:54.578Z,13.50
2023-03-19T13:43:52.290Z,13.60
2023-03-19T13:46:45.198Z,13.90
2023-03-19T13:50:16.475Z,13.70
2023-03-19T13:53:37.983Z,13.70
2023-03-19T13:56:30.662Z,13.70
2023-03-19T13:59:33.873Z,13.60
2023-03-19T14:02:21.733Z,13.20
2023-03-19T14:05:19.997Z,13.50
2023-03-19T14:08:20.758Z,13.50
2023-03-19T14:11:09.619Z,13.70
2023-03-19T14:14:08.266Z,13.80
2023-03-19T14:16:56.343Z,13.60
2023-03-19T14:19:44.343Z,13.70
2023-03-19T14:23:11.475Z,13.70
2023-03-19T14:26:24.595Z,14.00
2023-03-19T14:29:20.107Z,13.90
2023-03-19T14:32:17.098Z,13.90
2023-03-19T14:35:07.030Z,14.00
2023-03-19T14:37:56.305Z,14.00
2023-03-19T14:40:47.555Z,14.40
2023-03-19T14:43:50.644Z,14.90
2023-03-19T14:47:37.209Z,14.80
2023-03-19T14:50:50.570Z,14.60
2023-03-19T14:53:54.595Z,14.50
2023-03-19T14:56:43.146Z,14.10
2023-03-19T14:59:41.172Z,14.20
2023-03-19T15:02:44.152Z,14.20
2023-03-19T15:05:36.265Z,14.10
2023-03-19T15:08:26.654Z,14.10
2023-03-19T15:11:14.515Z,13.80
2023-03-19T15:14:36.223Z,13.90
2023-03-19T15:17:28.615Z,14.40
2023-03-19T15:20:21.901Z,14.40
2023-03-19T15:23:26.228Z,14.30
2023-03-19T15:26:18.503Z,14.40
2023-03-19T15:29:11.723Z,15.00
2023-03-19T15:32:05.264Z,15.60
2023-03-19T15:34:57.830Z,15.70
2023-03-19T15:37:51.996Z,15.60
2023-03-19T15:40:42.977Z,16.50
2023-03-19T15:43:32.076Z,17.10
2023-03-19T15:46:29.670Z,18.00
2023-03-19T15:49:37.780Z,17.90
2023-03-19T15:52:42.594Z,17.30
2023-03-19T15:55:30.776Z,17.60
2023-03-19T15:58:29.362Z,16.80
2023-03-19T16:01:19.189Z,17.30
2023-03-19T16:04:15.909Z,16.00
2023-03-19T16:07:07.298Z,15.70
2023-03-19T16:09:55.481Z,16.70
2023-03-19T16:12:43.525Z,16.10
2023-03-19T16:15:45.894Z,16.00
2023-03-19T16:18:55.654Z,15.70
2023-03-19T16:21:43.927Z,16.10
2023-03-19T16:24:37.621Z,15.70
2023-03-19T16:27:37.750Z,15.60
2023-03-19T16:30:27.357Z,16.10
2023-03-19T16:33:15.702Z,15.50
2023-03-19T16:36:04.194Z,15.30
2023-03-19T16:39:24.801Z,15.50
2023-03-19T16:42:34.507Z,15.20
2023-03-19T16:45:33.307Z,15.30
2023-03-19T16:48:21.399Z,15.30
2023-03-19T16:51:18.101Z,15.30
2023-03-19T16:54:07.485Z,15.20
2023-03-19T16:56:56.138Z,14.80
2023-03-19T16:59:45.685Z,14.20
2023-03-19T17:02:33.676Z,13.70
2023-03-19T17:05:22.445Z,13.60
2023-03-19T17:08:11.724Z,13.60
2023-03-19T17:10:59.617Z,13.40
2023-03-19T17:13:47.917Z,13.30
2023-03-19T17:16:36.350Z,13.20
2023-03-19T17:19:28.737Z,13.10
2023-03-19T17:22:16.829Z,13.10
2023-03-19T17:25:12.339Z,13.00
2023-03-19T17:28:00.307Z,12.90
2023-03-19T17:30:48.487Z,12.80
2023-03-19T17:33:36.795Z,12.90
2023-03-19T17:36:24.629Z,12.90
2023-03-19T17:39:12.474Z,12.70
2023-03-19T17:42:02.978Z,12.70
2023-03-19T17:44:51.210Z,12.60
2023-03-19T17:47:39.249Z,12.50
2023-03-19T17:50:31.578Z,12.30
2023-03-19T17:53:19.636Z,12.20
2023-03-19T17:56:14.640Z,12.20
2023-03-19T17:59:03.258Z,12.20
2023-03-19T18:01:52.282Z,12.20
2023-03-19T18:04:40.668Z,12.10
2023-03-19T18:07:31.605Z,12.10
2023-03-19T18:10:23.708Z,12.10
2023-03-19T18:13:12.018Z,12.10
2023-03-19T18:15:59.930Z,12.10
2023-03-19T18:18:51.087Z,12.10
2023-03-19T18:21:38.941Z,12.10
2023-03-19T18:24:27.418Z,12.30
2023-03-19T18:27:15.449Z,12.20
2023-03-19T18:30:03.638Z,12.10
2023-03-19T18:32:59.241Z,12.10
2023-03-19T18:35:48.408Z,12.10
2023-03-19T18:38:39.495Z,12.00
2023-03-19T18:41:31.430Z,11.90
2023-03-19T18:44:19.411Z,11.80
2023-03-19T18:47:15.747Z,11.80
2023-03-19T18:50:16.617Z,11.70
2023-03-19T18:53:04.804Z,11.70
2023-03-19T18:55:52.984Z,11.70
2023-03-19T18:58:41.186Z,11.60
2023-03-19T19:01:29.214Z,11.50
2023-03-19T19:04:17.698Z,11.40
2023-03-19T19:07:05.682Z,11.40
2023-03-19T19:09:53.629Z,11.50
2023-03-19T19:12:44.405Z,11.40
2023-03-19T19:15:36.515Z,11.30
2023-03-19T19:18:29.762Z,11.30
2023-03-19T19:21:17.624Z,11.40
2023-03-19T19:24:06.441Z,11.50
2023-03-19T19:26:54.577Z,11.60
2023-03-19T19:29:42.641Z,11.40
2023-03-19T19:32:31.011Z,11.10
2023-03-19T19:35:26.632Z,11.00
2023-03-19T19:38:16.311Z,11.10
2023-03-19T19:41:06.725Z,11.10
2023-03-19T19:43:56.176Z,11.10
2023-03-19T19:46:44.715Z,10.90
2023-03-19T19:49:34.761Z,10.70
2023-03-19T19:52:22.738Z,10.60
2023-03-19T19:55:11.073Z,10.70
2023-03-19T19:57:59.493Z,10.80
2023-03-19T20:01:02.365Z,10.90
2023-03-19T20:03:56.062Z,11.10
2023-03-19T20:06:46.691Z,11.00
2023-03-19T20:09:37.510Z,10.90
2023-03-19T20:12:36.471Z,10.80
2023-03-19T20:15:36.303Z,10.90
2023-03-19T20:18:30.771Z,10.90
2023-03-19T20:21:23.040Z,10.90
2023-03-19T20:24:11.531Z,10.70
2023-03-19T20:27:00.865Z,10.70
2023-03-19T20:29:50.790Z,10.80
2023-03-19T20:32:40.286Z,10.50
2023-03-19T20:35:35.000Z,10.50
2023-03-19T20:38:26.737Z,10.40
2023-03-19T20:41:24.670Z,10.60
2023-03-19T20:44:25.862Z,10.80
2023-03-19T20:47:21.281Z,10.90
2023-03-19T20:50:23.645Z,11.10
2023-03-19T20:53:14.626Z,11.10
2023-03-19T20:56:10.411Z,11.00
2023-03-19T20:58:58.383Z,11.20
2023-03-19T21:01:47.532Z,11.50
2023-03-19T21:04:42.025Z,11.50
2023-03-19T21:07:37.940Z,11.50
2023-03-19T21:10:45.996Z,11.60
2023-03-19T21:13:34.378Z,11.70
2023-03-19T21:16:30.227Z,11.90
2023-03-19T21:19:21.109Z,11.70
2023-03-19T21:22:28.583Z,11.60
2023-03-19T21:25:24.057Z,11.30
2023-03-19T21:28:26.556Z,11.10
2023-03-19T21:31:20.489Z,10.90
2023-03-19T21:34:13.182Z,11.00
2023-03-19T21:37:01.289Z,10.90
2023-03-19T21:39:49.086Z,10.80
2023-03-19T21:42:38.083Z,11.00
2023-03-19T21:45:31.817Z,11.30
2023-03-19T21:48:30.683Z,11.10
2023-03-19T21:51:18.693Z,10.90
2023-03-19T21:54:06.460Z,10.90
2023-03-19T21:56:54.289Z,10.80
2023-03-19T21:59:45.152Z,10.70
2023-03-19T22:02:46.586Z,10.70
2023-03-19T22:05:34.964Z,10.70
2023-03-19T22:08:25.152Z,10.60
2023-03-19T22:11:24.543Z,10.40
2023-03-19T22:14:26.677Z,10.40
2023-03-19T22:17:14.559Z,10.40
2023-03-19T22:20:06.002Z,10.30
2023-03-19T22:22:55.404Z,10.20
2023-03-19T22:25:49.634Z,10.30
2023-03-19T22:28:37.347Z,10.30
2023-03-19T22:31:25.572Z,10.30
2023-03-19T22:34:16.696Z,10.30
2023-03-19T22:37:34.249Z,10.40
2023-03-19T22:40:22.286Z,10.40
2023-03-19T22:43:32.945Z,10.40
2023-03-19T22:46:21.350Z,10.30
2023-03-19T22:49:17.654Z,10.10
2023-03-19T22:52:05.886Z,10.00
2023-03-19T22:54:53.773Z,10.00
2023-03-19T22:57:41.676Z,9.90
2023-03-19T23:00:29.629Z,9.90
2023-03-19T23:03:30.798Z,9.90
2023-03-19T23:06:30.192Z,9.90
2023-03-19T23:09:32.267Z,9.70
2023-03-19T23:12:20.612Z,9.70
2023-03-19T23:15:09.659Z,9.70
2023-03-19T23:17:59.785Z,9.70
2023-03-19T23:20:48.180Z,9.80
2023-03-19T23:23:36.191Z,9.70
2023-03-19T23:26:29.313Z,9.60
2023-03-19T23:29:25.077Z,9.60
2023-03-19T23:32:13.650Z,9.50
2023-03-19T23:35:02.182Z,9.50
2023-03-19T23:37:50.732Z,9.60
2023-03-19T23:40:41.496Z,9.50
2023-03-19T23:43:30.005Z,9.50
2023-03-19T23:46:18.299Z,9.50
2023-03-19T23:49:14.902Z,9.60
2023-03-19T23:52:04.551Z,9.60
2023-03-19T23:54:52.520Z,9.70
2023-03-19T23:57:40.620Z,9.80
